createdAt,value
2019-02-18T00:02:52.568Z,26.40
2019-02-18T00:05:45.246Z,26.50
2019-02-18T00:08:37.556Z,26.40
2019-02-18T00:11:30.737Z,26.50
2019-02-18T00:14:22.933Z,26.50
2019-02-18T00:17:15.370Z,26.50
2019-02-18T00:20:08.157Z,26.40
2019-02-18T00:23:00.977Z,26.40
2019-02-18T00:25:53.673Z,26.30
2019-02-18T00:28:46.563Z,26.30
2019-02-18T00:31:39.525Z,26.10
2019-02-18T00:34:32.264Z,26.30
2019-02-18T00:37:25.524Z,26.40
2019-02-18T00:40:18.435Z,26.30
2019-02-18T00:43:11.233Z,26.20
2019-02-18T00:46:04.503Z,26.20
2019-02-18T00:48:57.643Z,26.10
2019-02-18T00:51:50.555Z,26.20
2019-02-18T00:54:43.580Z,26.20
2019-02-18T00:57:38.558Z,26.20
2019-02-18T01:00:31.365Z,26.10
2019-02-18T01:03:23.991Z,26.20
2019-02-18T01:06:17.216Z,26.20
2019-02-18T01:09:09.634Z,26.20
2019-02-18T01:12:02.296Z,26.30
2019-02-18T01:14:54.740Z,26.20
2019-02-18T01:17:47.786Z,26.20
2019-02-18T01:20:40.538Z,26.10
2019-02-18T01:23:33.205Z,26.20
2019-02-18T01:26:25.892Z,26.20
2019-02-18T01:29:19.146Z,26.20
2019-02-18T01:32:11.863Z,26.20
2019-02-18T01:35:04.575Z,26.20
2019-02-18T01:37:57.465Z,26.30
2019-02-18T01:40:50.105Z,26.20
2019-02-18T01:43:42.944Z,26.20
2019-02-18T01:46:35.611Z,26.20
2019-02-18T01:49:28.447Z,26.20
2019-02-18T01:52:21.392Z,26.30
2019-02-18T01:55:14.611Z,26.10
2019-02-18T01:58:07.479Z,26.10
2019-02-18T02:00:59.936Z,26.20
2019-02-18T02:03:52.936Z,26.20
2019-02-18T02:06:46.731Z,26.20
2019-02-18T02:09:39.887Z,26.30
2019-02-18T02:12:33.058Z,26.40
2019-02-18T02:15:27.749Z,26.30
2019-02-18T02:18:20.731Z,26.20
2019-02-18T02:21:13.703Z,26.30
2019-02-18T02:24:06.879Z,26.30
2019-02-18T02:26:59.954Z,26.30
2019-02-18T02:29:52.790Z,26.30
2019-02-18T02:32:45.610Z,26.30
2019-02-18T02:35:38.708Z,26.30
2019-02-18T02:38:32.159Z,26.20
2019-02-18T02:41:25.332Z,26.40
2019-02-18T02:44:18.746Z,26.40
2019-02-18T02:47:12.026Z,26.40
2019-02-18T02:50:04.840Z,26.30
2019-02-18T02:52:57.751Z,26.50
2019-02-18T02:55:50.209Z,26.40
2019-02-18T02:58:42.604Z,26.30
2019-02-18T03:01:35.471Z,26.40
2019-02-18T03:04:29.995Z,26.60
2019-02-18T03:07:24.249Z,26.50
2019-02-18T03:10:16.881Z,26.40
2019-02-18T03:13:09.931Z,26.40
2019-02-18T03:16:02.359Z,26.30
2019-02-18T03:18:55.586Z,26.40
2019-02-18T03:21:48.845Z,26.30
2019-02-18T03:25:01.399Z,26.60
2019-02-18T03:27:55.767Z,26.50
2019-02-18T03:31:08.752Z,26.70
2019-02-18T03:34:06.475Z,26.80
2019-02-18T03:36:58.794Z,26.80
2019-02-18T03:39:51.752Z,26.80
2019-02-18T03:42:45.035Z,26.80
2019-02-18T03:45:37.933Z,26.60
2019-02-18T03:48:30.912Z,26.50
2019-02-18T03:51:24.177Z,26.50
2019-02-18T03:54:17.617Z,26.50
2019-02-18T03:57:10.798Z,26.60
2019-02-18T04:00:04.390Z,26.50
2019-02-18T04:02:57.615Z,26.50
2019-02-18T04:05:51.732Z,26.40
2019-02-18T04:08:44.902Z,26.20
2019-02-18T04:11:37.567Z,26.30
2019-02-18T04:14:30.466Z,26.30
2019-02-18T04:17:23.413Z,26.20
2019-02-18T04:20:15.913Z,26.20
2019-02-18T04:23:09.540Z,26.40
2019-02-18T04:26:01.959Z,26.60
2019-02-18T04:28:54.713Z,25.90
2019-02-18T06:06:45.025Z,26.40
2019-02-18T06:09:49.508Z,26.50
2019-02-18T06:33:07.000Z,26.40
2019-02-18T10:46:45.206Z,26.80
2019-02-18T10:49:44.625Z,26.80
2019-02-18T10:52:38.214Z,26.90
2019-02-18T10:55:41.672Z,26.80
2019-02-18T10:58:38.506Z,26.80
2019-02-18T11:01:33.209Z,26.90
2019-02-18T11:04:32.551Z,26.90
2019-02-18T11:07:30.101Z,26.80
2019-02-18T11:10:25.370Z,26.80
2019-02-18T11:13:30.382Z,26.70
2019-02-18T11:16:23.991Z,26.80
2019-02-18T11:19:17.914Z,26.80
2019-02-18T11:22:15.977Z,26.80
2019-02-18T11:25:20.366Z,26.90
2019-02-18T11:28:33.788Z,26.90
2019-02-18T11:31:37.471Z,26.90
2019-02-18T11:34:32.187Z,26.90
2019-02-18T11:37:29.707Z,26.90
2019-02-18T11:40:33.190Z,26.80
2019-02-18T11:43:47.461Z,26.90
2019-02-18T11:46:44.599Z,27.00
2019-02-18T11:49:49.801Z,26.90
2019-02-18T11:56:09.912Z,26.90
2019-02-18T11:59:04.493Z,26.90
2019-02-18T12:02:11.318Z,26.80
2019-02-18T12:05:19.655Z,26.90
2019-02-18T12:08:17.854Z,26.90
2019-02-18T12:11:14.299Z,27.00
2019-02-18T12:18:25.628Z,26.80
2019-02-18T12:21:46.551Z,26.90
2019-02-18T12:25:25.063Z,26.80
2019-02-18T12:28:37.392Z,26.90
2019-02-18T12:31:41.377Z,26.80
2019-02-18T12:35:05.543Z,26.80
2019-02-18T12:40:59.225Z,26.90
2019-02-18T12:44:04.718Z,26.90
2019-02-18T12:47:04.723Z,26.80
2019-02-18T12:50:03.392Z,26.90
2019-02-18T12:52:55.863Z,26.90
2019-02-18T12:55:48.949Z,26.90
2019-02-18T12:58:42.050Z,26.90
2019-02-18T13:01:38.279Z,26.90
2019-02-18T13:04:45.197Z,26.90
2019-02-18T13:07:42.599Z,26.90
2019-02-18T13:13:59.324Z,26.90
2019-02-18T13:17:02.571Z,26.90
2019-02-18T13:20:19.769Z,27.00
2019-02-18T13:23:47.969Z,27.00
2019-02-18T13:27:09.860Z,26.90
2019-02-18T13:30:03.431Z,26.90
2019-02-18T13:33:00.856Z,26.90
2019-02-18T13:35:53.669Z,27.00
2019-02-18T13:38:47.231Z,27.00
2019-02-18T13:41:45.587Z,26.90
2019-02-18T13:44:42.519Z,27.00
2019-02-18T13:47:37.476Z,27.00
2019-02-18T13:50:40.290Z,26.90
2019-02-18T13:53:35.790Z,27.00
2019-02-18T13:56:30.315Z,27.00
2019-02-18T13:59:31.090Z,26.90
2019-02-18T14:02:23.671Z,27.10
2019-02-18T14:08:08.490Z,27.00
2019-02-18T14:11:24.422Z,26.90
2019-02-18T14:14:23.075Z,26.90
2019-02-18T14:17:16.133Z,26.90
2019-02-18T14:20:11.121Z,26.90
2019-02-18T14:23:04.213Z,26.90
2019-02-18T14:25:57.066Z,26.90
2019-02-18T14:28:49.932Z,26.90
2019-02-18T14:31:42.611Z,26.90
2019-02-18T14:34:39.355Z,26.80
2019-02-18T14:37:33.333Z,26.80
2019-02-18T14:40:30.109Z,26.80
2019-02-18T14:43:24.482Z,26.80
2019-02-18T14:46:18.630Z,26.90
2019-02-18T14:49:11.185Z,26.80
2019-02-18T14:52:03.876Z,26.90
2019-02-18T14:54:56.841Z,26.90
2019-02-18T14:57:49.842Z,26.90
2019-02-18T15:00:43.812Z,26.90
2019-02-18T15:03:37.111Z,26.90
2019-02-18T15:06:30.214Z,26.90
2019-02-18T15:09:23.427Z,26.90
2019-02-18T15:12:12.438Z,26.90
2019-02-18T15:15:05.123Z,26.90
2019-02-18T15:17:57.896Z,26.90
2019-02-18T15:20:52.801Z,26.90
2019-02-18T15:23:45.298Z,26.90
2019-02-18T15:26:37.888Z,26.80
2019-02-18T15:29:26.426Z,26.80
2019-02-18T15:32:18.807Z,26.90
2019-02-18T15:38:01.039Z,26.90
2019-02-18T15:40:54.833Z,26.90
2019-02-18T15:43:47.400Z,26.80
2019-02-18T15:49:30.001Z,26.90
2019-02-18T15:52:23.068Z,26.90
2019-02-18T15:55:16.004Z,26.90
2019-02-18T15:58:09.375Z,26.90
2019-02-18T16:01:02.796Z,26.80
2019-02-18T16:03:55.923Z,26.90
2019-02-18T16:06:48.894Z,26.80
2019-02-18T16:09:42.686Z,26.80
2019-02-18T16:12:37.409Z,26.80
2019-02-18T16:15:30.272Z,26.80
2019-02-18T16:18:23.184Z,26.80
2019-02-18T16:21:17.517Z,26.80
2019-02-18T16:24:19.592Z,26.80
2019-02-18T16:27:04.736Z,26.80
2019-02-18T16:29:57.608Z,26.80
2019-02-18T16:32:51.064Z,26.80
2019-02-18T16:35:43.816Z,26.90
2019-02-18T16:38:37.105Z,26.90
2019-02-18T16:41:30.311Z,26.90
2019-02-18T16:44:23.792Z,26.80
2019-02-18T16:47:18.099Z,26.80
2019-02-18T16:50:12.490Z,26.80
2019-02-18T16:53:05.183Z,26.80
2019-02-18T16:55:58.623Z,26.70
2019-02-18T16:58:51.980Z,26.40
2019-02-18T17:01:45.664Z,26.50
2019-02-18T17:04:38.293Z,26.60
2019-02-18T17:07:31.664Z,26.70
2019-02-18T17:10:25.210Z,26.80
2019-02-18T17:13:18.851Z,26.80
2019-02-18T17:16:12.212Z,26.80
2019-02-18T17:19:05.213Z,26.80
2019-02-18T17:21:58.436Z,26.90
2019-02-18T17:24:51.637Z,26.90
2019-02-18T17:27:44.468Z,26.90
2019-02-18T17:30:38.187Z,26.80
2019-02-18T17:36:20.464Z,26.90
2019-02-18T17:39:13.475Z,26.90
2019-02-18T17:42:04.930Z,26.90
2019-02-18T17:44:58.717Z,26.80
2019-02-18T17:47:52.139Z,26.80
2019-02-18T17:50:45.324Z,26.80
2019-02-18T17:53:38.620Z,26.80
2019-02-18T17:56:31.644Z,26.80
2019-02-18T17:59:24.468Z,26.90
2019-02-18T18:02:17.896Z,26.90
2019-02-18T18:05:11.255Z,26.80
2019-02-18T18:08:05.422Z,26.90
2019-02-18T18:10:58.461Z,26.90
2019-02-18T18:13:51.388Z,26.90
2019-02-18T18:16:44.375Z,26.90
2019-02-18T18:19:37.803Z,26.90
2019-02-18T18:22:30.445Z,27.00
2019-02-18T18:25:23.708Z,26.90
2019-02-18T18:28:16.479Z,26.90
2019-02-18T18:31:08.893Z,26.90
2019-02-18T18:34:01.577Z,26.90
2019-02-18T18:36:55.664Z,26.80
2019-02-18T18:39:47.737Z,26.90
2019-02-18T18:42:40.249Z,26.80
2019-02-18T18:45:32.744Z,26.80
2019-02-18T18:48:25.361Z,26.80
2019-02-18T18:51:18.348Z,26.70
2019-02-18T18:54:11.173Z,26.70
2019-02-18T18:57:04.442Z,26.70
2019-02-18T18:59:57.154Z,26.80
2019-02-18T19:02:50.392Z,26.70
2019-02-18T19:05:43.654Z,26.80
2019-02-18T19:08:36.862Z,26.70
2019-02-18T19:11:30.273Z,26.70
2019-02-18T19:14:23.636Z,26.60
2019-02-18T19:17:16.620Z,26.60
2019-02-18T19:20:11.473Z,26.70
2019-02-18T19:23:03.851Z,26.60
2019-02-18T19:25:56.710Z,26.60
2019-02-18T19:28:49.786Z,26.60
2019-02-18T19:31:44.110Z,26.60
2019-02-18T19:34:36.865Z,26.60
2019-02-18T19:37:31.875Z,26.60
2019-02-18T19:40:24.402Z,26.60
2019-02-18T19:43:17.202Z,26.60
2019-02-18T19:46:10.482Z,26.70
2019-02-18T19:49:02.702Z,26.70
2019-02-18T19:51:55.612Z,26.70
2019-02-18T19:54:48.122Z,26.70
2019-02-18T19:57:40.642Z,26.80
2019-02-18T20:00:33.655Z,26.80
2019-02-18T20:03:27.844Z,26.80
2019-02-18T20:06:20.476Z,26.80
2019-02-18T20:09:16.292Z,26.80
2019-02-18T20:12:09.019Z,26.70
2019-02-18T20:15:02.236Z,26.60
2019-02-18T20:17:55.886Z,26.60
2019-02-18T20:20:48.692Z,26.70
2019-02-18T20:23:41.064Z,26.60
2019-02-18T20:26:34.018Z,26.60
2019-02-18T20:29:27.263Z,26.60
2019-02-18T20:32:20.151Z,26.60
2019-02-18T20:35:13.103Z,26.60
2019-02-18T20:38:05.567Z,26.60
2019-02-18T20:40:57.886Z,26.60
2019-02-18T20:43:50.513Z,26.60
2019-02-18T20:46:42.953Z,26.60
2019-02-18T20:49:36.819Z,26.60
2019-02-18T20:52:29.778Z,26.60
2019-02-18T20:55:23.078Z,26.60
2019-02-18T20:58:15.892Z,26.60
2019-02-18T21:01:09.094Z,26.60
2019-02-18T21:04:02.418Z,26.60
2019-02-18T21:06:55.625Z,26.60
2019-02-18T21:09:48.231Z,26.60
2019-02-18T21:12:40.643Z,26.60
2019-02-18T21:15:33.924Z,26.60
2019-02-18T21:18:26.932Z,26.60
2019-02-18T21:21:19.329Z,26.60
2019-02-18T21:24:11.893Z,26.60
2019-02-18T21:27:05.142Z,26.60
2019-02-18T21:29:57.868Z,26.70
2019-02-18T21:32:50.505Z,26.70
2019-02-18T21:35:43.322Z,26.70
2019-02-18T21:38:36.542Z,26.70
2019-02-18T21:41:29.785Z,26.70
2019-02-18T21:44:25.264Z,26.70
2019-02-18T21:47:16.323Z,26.60
2019-02-18T21:50:09.146Z,26.60
2019-02-18T21:53:02.648Z,26.70
2019-02-18T21:55:55.584Z,26.70
2019-02-18T21:58:48.936Z,26.70
2019-02-18T22:01:41.794Z,26.60
2019-02-18T22:04:34.744Z,26.60
2019-02-18T22:07:27.145Z,26.70
2019-02-18T22:10:20.177Z,26.60
2019-02-18T22:13:13.014Z,26.60
2019-02-18T22:16:06.204Z,26.60
2019-02-18T22:18:59.104Z,26.60
2019-02-18T22:21:52.204Z,26.60
2019-02-18T22:24:44.836Z,26.60
2019-02-18T22:27:37.627Z,26.60
2019-02-18T22:30:30.123Z,26.60
2019-02-18T22:33:22.999Z,26.60
2019-02-18T22:36:15.639Z,26.60
2019-02-18T22:39:09.651Z,26.60
2019-02-18T22:42:02.485Z,26.60
2019-02-18T22:44:55.392Z,26.60
2019-02-18T22:47:48.093Z,26.70
2019-02-18T22:50:41.578Z,26.70
2019-02-18T22:53:34.825Z,26.70
2019-02-18T22:56:27.875Z,26.60
2019-02-18T22:59:20.645Z,26.60
2019-02-18T23:02:13.863Z,26.70
2019-02-18T23:05:06.580Z,26.60
2019-02-18T23:07:59.456Z,26.60
2019-02-18T23:10:51.955Z,26.60
2019-02-18T23:13:44.665Z,26.60
2019-02-18T23:16:38.960Z,26.60
2019-02-18T23:19:32.259Z,26.60
2019-02-18T23:22:25.264Z,26.60
2019-02-18T23:25:18.092Z,26.60
2019-02-18T23:28:10.980Z,26.60
2019-02-18T23:31:04.603Z,26.60
2019-02-18T23:33:57.854Z,26.60
2019-02-18T23:36:50.984Z,26.60
2019-02-18T23:39:44.286Z,26.60
2019-02-18T23:42:37.639Z,26.60
2019-02-18T23:45:30.767Z,26.60
2019-02-18T23:48:23.777Z,26.50
2019-02-18T23:51:15.969Z,26.60
2019-02-18T23:54:08.860Z,26.50
2019-02-18T23:57:01.492Z,26.60
2019-02-18T23:59:54.456Z,26.60
